Time;durP1;ratioP1;P1;durP2;ratioP2;P2;SDS_P1;SDS_P2;PMS_P1;PMS_P2;Temp;Humidity;BMP_temperature;BMP_pressure;BME280_temperature;BME280_humidity;BME280_pressure;Samples;Min_cycle;Max_cycle;Signal;HPM_P1;HPM_P2
2021/10/08 00:03:41;;;;;;;;;;;;;;;;;;;;;
2021/10/08 00:06:29;;;;;;;233.02;45.12;;;;;;;;;;4256042;33;20244;-78
2021/10/08 00:08:54;;;;;;;281.40;43.45;;;;;;;;;;4299873;33;20179;-77
2021/10/08 00:14:59;;;;;;;310.30;46.78;;;;;;;;;;4244271;33;20686;-78
2021/10/08 00:17:46;;;;;;;356.13;50.50;;;;;;;;;;4278410;33;20538;-78
2021/10/08 00:20:15;;;;;;;144.87;39.95;;;;;;;;;;4303928;33;20156;-77
2021/10/08 00:23:04;;;;;;;178.75;41.58;;;;;;;;;;4303379;33;20141;-77
2021/10/08 00:26:06;;;;;;;;;;;;;;;;;;;;;
2021/10/08 00:28:55;;;;;;;147.95;40.92;;;;;;;;;;4285824;33;20182;-77
2021/10/08 00:31:29;;;;;;;139.60;43.47;;;;;;;;;;4303378;33;20163;-78
2021/10/08 00:34:06;;;;;;;147.68;41.63;;;;;;;;;;4303140;33;20605;-77
2021/10/08 00:39:34;;;;;;;292.80;48.67;;;;;;;;;;4303678;33;20135;-77
2021/10/08 00:45:01;;;;;;;156.93;44.35;;;;;;;;;;4287097;33;20173;-78
2021/10/08 00:47:44;;;;;;;169.87;46.95;;;;;;;;;;4286959;33;20144;-77
2021/10/08 00:50:39;;;;;;;228.77;45.55;;;;;;;;;;4296871;33;20172;-77
2021/10/08 00:53:05;;;;;;;345.95;53.38;;;;;;;;;;4302067;33;20164;-77
2021/10/08 00:55:31;;;;;;;288.27;42.78;;;;;;;;;;4302956;33;20179;-77
2021/10/08 00:57:57;;;;;;;190.27;48.65;;;;;;;;;;4302884;33;20646;-77
2021/10/08 01:00:22;;;;;;;185.52;45.42;;;;;;;;;;4302942;33;20222;-77
2021/10/08 01:02:48;;;;;;;207.25;42.85;;;;;;;;;;4303321;33;20133;-77
2021/10/08 01:05:13;;;;;;;223.85;44.25;;;;;;;;;;4302809;33;20535;-77
2021/10/08 01:07:56;;;;;;;;;;;;;;;;;;;;;
2021/10/08 01:10:22;;;;;;;195.57;44.45;;;;;;;;;;4303487;33;20166;-77
2021/10/08 01:12:50;;;;;;;211.27;47.90;;;;;;;;;;4302951;33;20133;-77
2021/10/08 01:15:36;;;;;;;108.80;37.72;;;;;;;;;;4289760;33;20227;-77
2021/10/08 01:18:11;;;;;;;280.50;50.20;;;;;;;;;;4303073;33;20155;-77
2021/10/08 01:20:46;;;;;;;224.23;43.25;;;;;;;;;;4303342;33;20162;-77
2021/10/08 01:23:15;;;;;;;106.35;39.03;;;;;;;;;;4302832;33;20547;-77
2021/10/08 01:26:20;;;;;;;269.60;48.53;;;;;;;;;;4302570;33;20611;-77
2021/10/08 01:28:55;;;;;;;88.80;36.00;;;;;;;;;;4300910;33;20152;-76
2021/10/08 01:31:23;;;;;;;145.50;41.67;;;;;;;;;;4289595;33;20569;-76
2021/10/08 01:33:51;;;;;;;292.42;46.40;;;;;;;;;;4289168;33;20524;-77
2021/10/08 01:36:37;;;;;;;292.62;49.00;;;;;;;;;;4302553;33;20152;-77
2021/10/08 01:39:02;;;;;;;169.00;45.55;;;;;;;;;;4293927;33;20238;-77
2021/10/08 01:44:28;;;;;;;88.72;35.58;;;;;;;;;;4271947;33;20185;-77
2021/10/08 01:47:03;;;;;;;;;;;;;;;;;;;;;
2021/10/08 01:50:04;;;;;;;140.82;40.33;;;;;;;;;;4293940;33;20163;-77
2021/10/08 01:55:39;;;;;;;164.15;41.40;;;;;;;;;;4273646;33;20157;-77
2021/10/08 01:58:11;;;;;;;145.10;41.70;;;;;;;;;;4296436;33;20160;-77
2021/10/08 02:00:46;;;;;;;;;;;;;;;;;;;;;
2021/10/08 02:03:39;;;;;;;129.87;38.13;;;;;;;;;;4276432;33;20156;-77
2021/10/08 02:06:46;;;;;;;;;;;;;;;;;;;;;
2021/10/08 02:09:12;;;;;;;224.07;40.12;;;;;;;;;;4287329;33;20249;-77
2021/10/08 02:11:53;;;;;;;205.80;42.75;;;;;;;;;;4287987;33;20152;-77
2021/10/08 02:15:16;;;;;;;;;;;;;;;;;;;;;
2021/10/08 02:17:09;;;;;;;206.95;39.85;;;;;;;;;;4278332;33;20168;-77
2021/10/08 02:25:52;;;;;;;207.57;41.65;;;;;;;;;;4208273;34;20237;-77
2021/10/08 02:28:20;;;;;;;80.97;32.13;;;;;;;;;;4226642;33;20507;-77
2021/10/08 02:30:55;;;;;;;89.18;31.45;;;;;;;;;;4228924;34;20194;-77
2021/10/08 02:33:26;;;;;;;87.55;32.08;;;;;;;;;;4228437;34;20625;-77
2021/10/08 02:35:51;;;;;;;181.30;37.42;;;;;;;;;;4228650;33;20195;-77
2021/10/08 02:38:17;;;;;;;170.25;39.25;;;;;;;;;;4287619;33;20449;-77
2021/10/08 02:41:06;;;;;;;90.87;30.23;;;;;;;;;;4287473;33;20243;-77
2021/10/08 02:43:44;;;;;;;155.52;36.75;;;;;;;;;;4278688;33;20232;-77
2021/10/08 02:49:36;;;;;;;216.43;38.03;;;;;;;;;;4259393;33;20168;-77
2021/10/08 02:52:24;;;;;;;100.38;32.90;;;;;;;;;;4286845;33;20587;-77
2021/10/08 02:54:55;;;;;;;207.82;34.70;;;;;;;;;;4287438;33;20219;-77
2021/10/08 02:57:37;;;;;;;;;;;;;;;;;;;;;
2021/10/08 03:00:41;;;;;;;143.65;35.80;;;;;;;;;;4301916;33;20176;-78
2021/10/08 03:03:09;;;;;;;141.70;33.88;;;;;;;;;;4300565;33;20574;-77
2021/10/08 03:05:34;;;;;;;161.07;39.22;;;;;;;;;;4301346;33;20226;-77
2021/10/08 03:08:07;;;;;;;73.53;32.25;;;;;;;;;;4301308;33;20543;-78
2021/10/08 03:10:50;;;;;;;;;;;;;;;;;;;;;
2021/10/08 03:13:16;;;;;;;71.37;29.80;;;;;;;;;;4299408;33;20187;-78
2021/10/08 03:15:41;;;;;;;160.77;35.47;;;;;;;;;;4301724;33;20152;-78
2021/10/08 03:18:10;;;;;;;88.62;30.95;;;;;;;;;;4301852;33;20183;-78
2021/10/08 03:20:43;;;;;;;185.30;36.58;;;;;;;;;;4301355;33;20136;-78
2021/10/08 03:23:09;;;;;;;157.25;37.08;;;;;;;;;;4302212;33;20133;-78
2021/10/08 03:25:34;;;;;;;123.35;32.45;;;;;;;;;;4301168;33;20160;-78
2021/10/08 03:28:06;;;;;;;47.90;25.02;;;;;;;;;;4301378;33;20466;-78
2021/10/08 03:33:41;;;;;;;114.50;31.92;;;;;;;;;;4268918;33;20176;-77
2021/10/08 03:36:14;;;;;;;104.05;31.67;;;;;;;;;;4301500;33;20171;-77
2021/10/08 03:38:50;;;;;;;175.18;35.13;;;;;;;;;;4302306;33;20128;-77
2021/10/08 03:41:18;;;;;;;286.95;39.13;;;;;;;;;;4302148;33;20178;-77
2021/10/08 03:43:43;;;;;;;69.43;28.95;;;;;;;;;;4301610;33;20586;-77
2021/10/08 03:46:17;;;;;;;68.35;27.13;;;;;;;;;;4301746;33;20159;-77
2021/10/08 03:51:49;;;;;;;311.12;34.40;;;;;;;;;;4301765;33;20538;-76
2021/10/08 03:54:17;;;;;;;113.28;27.90;;;;;;;;;;4287450;33;20244;-77
2021/10/08 03:56:43;;;;;;;155.37;34.15;;;;;;;;;;4301269;33;20551;-77
2021/10/08 04:02:18;;;;;;;;;;;;;;;;;;;;;
2021/10/08 04:04:44;;;;;;;89.95;27.75;;;;;;;;;;4301623;33;20179;-79
2021/10/08 04:07:12;;;;;;;53.78;24.58;;;;;;;;;;4304082;33;20140;-78
2021/10/08 04:09:40;;;;;;;124.00;33.15;;;;;;;;;;4303684;33;20219;-78
2021/10/08 04:15:24;;;;;;;101.30;29.27;;;;;;;;;;4279177;33;20227;-77
2021/10/08 04:17:51;;;;;;;112.00;28.20;;;;;;;;;;4304429;33;20159;-77
2021/10/08 04:20:36;;;;;;;57.53;24.80;;;;;;;;;;4302935;33;20485;-78
2021/10/08 04:23:03;;;;;;;50.28;22.75;;;;;;;;;;4304013;33;20158;-79
2021/10/08 04:25:31;;;;;;;53.70;24.20;;;;;;;;;;4290308;33;20189;-76
2021/10/08 04:27:56;;;;;;;67.72;25.62;;;;;;;;;;4303370;33;20228;-77
2021/10/08 04:30:54;;;;;;;50.92;23.87;;;;;;;;;;4303379;33;20132;-77
2021/10/08 04:33:32;;;;;;;46.00;23.02;;;;;;;;;;4302907;33;20608;-77
2021/10/08 04:36:10;;;;;;;;;;;;;;;;;;;;;
2021/10/08 04:41:33;;;;;;;73.20;27.65;;;;;;;;;;4283289;33;20270;-78
2021/10/08 04:43:59;;;;;;;150.38;29.90;;;;;;;;;;4303625;33;20166;-78
2021/10/08 04:46:27;;;;;;;45.30;23.20;;;;;;;;;;4303061;33;20137;-77
2021/10/08 04:49:13;;;;;;;155.57;30.48;;;;;;;;;;4303400;33;20140;-77
2021/10/08 04:51:46;;;;;;;110.37;27.90;;;;;;;;;;4303492;33;20206;-76
2021/10/08 04:54:19;;;;;;;119.82;27.10;;;;;;;;;;4290242;33;20233;-78
2021/10/08 04:56:59;;;;;;;55.67;23.87;;;;;;;;;;4303821;33;20486;-77
2021/10/08 05:02:48;;;;;;;79.20;28.30;;;;;;;;;;4284989;33;20194;-77
2021/10/08 05:08:11;;;;;;;86.15;25.70;;;;;;;;;;4261155;33;20488;-76
2021/10/08 05:10:37;;;;;;;115.05;28.12;;;;;;;;;;4287107;33;20171;-77
2021/10/08 05:13:04;;;;;;;75.47;26.52;;;;;;;;;;4274034;33;20247;-77
2021/10/08 05:15:30;;;;;;;109.85;28.27;;;;;;;;;;4286387;33;20148;-76
2021/10/08 05:18:18;;;;;;;67.43;27.40;;;;;;;;;;4286563;33;20315;-77
2021/10/08 05:20:43;;;;;;;65.97;26.15;;;;;;;;;;4279851;33;20188;-77
2021/10/08 05:23:11;;;;;;;78.35;28.40;;;;;;;;;;4286124;33;20235;-77
2021/10/08 05:25:40;;;;;;;93.07;27.60;;;;;;;;;;4285937;33;20221;-76
2021/10/08 05:28:12;;;;;;;82.97;27.62;;;;;;;;;;4286311;33;20648;-76
2021/10/08 05:30:41;;;;;;;118.78;31.00;;;;;;;;;;4286102;33;20208;-76
2021/10/08 05:33:09;;;;;;;122.28;32.33;;;;;;;;;;4286646;33;20483;-76
2021/10/08 05:35:35;;;;;;;110.15;28.08;;;;;;;;;;4274008;33;20227;-76
2021/10/08 05:41:23;;;;;;;68.45;25.80;;;;;;;;;;4286366;33;20151;-76
2021/10/08 05:44:02;;;;;;;66.53;25.90;;;;;;;;;;4286211;33;20641;-76
2021/10/08 05:46:30;;;;;;;122.82;32.97;;;;;;;;;;4286135;33;20158;-77
2021/10/08 05:51:46;;;;;;;111.05;28.60;;;;;;;;;;4285546;33;20187;-72
2021/10/08 05:54:14;;;;;;;101.72;27.98;;;;;;;;;;4302789;33;20559;-76
2021/10/08 05:57:01;;;;;;;;;;;;;;;;;;;;;
2021/10/08 05:59:41;;;;;;;89.05;26.58;;;;;;;;;;4302348;33;20191;-78
2021/10/08 06:02:15;;;;;;;55.35;24.23;;;;;;;;;;4302262;33;20591;-77
2021/10/08 06:04:49;;;;;;;122.55;27.30;;;;;;;;;;4301024;33;20167;-78
2021/10/08 06:07:14;;;;;;;95.72;27.40;;;;;;;;;;4301290;33;20485;-76
2021/10/08 06:09:47;;;;;;;107.45;26.87;;;;;;;;;;4301818;33;20207;-77
2021/10/08 06:12:13;;;;;;;138.77;32.28;;;;;;;;;;4302390;33;20133;-76
2021/10/08 06:14:41;;;;;;;99.03;27.08;;;;;;;;;;4301522;33;20521;-77
2021/10/08 06:17:09;;;;;;;103.03;26.85;;;;;;;;;;4301803;33;20148;-78
2021/10/08 06:19:40;;;;;;;216.25;32.50;;;;;;;;;;4288885;33;20545;-76
2021/10/08 06:22:05;;;;;;;81.07;26.90;;;;;;;;;;4278204;33;20164;-77
2021/10/08 06:24:37;;;;;;;58.08;25.27;;;;;;;;;;4298629;33;20217;-77
2021/10/08 06:27:08;;;;;;;51.45;23.60;;;;;;;;;;4301423;33;20133;-78
2021/10/08 06:29:34;;;;;;;70.25;25.48;;;;;;;;;;4301325;33;20160;-78
2021/10/08 06:31:59;;;;;;;122.28;28.80;;;;;;;;;;4301757;33;20164;-76
2021/10/08 06:34:25;;;;;;;72.03;23.87;;;;;;;;;;4301235;33;20509;-78
2021/10/08 06:36:50;;;;;;;120.25;27.65;;;;;;;;;;4288437;33;20163;-78
2021/10/08 06:39:15;;;;;;;93.82;25.67;;;;;;;;;;4300421;33;20211;-77
2021/10/08 06:41:40;;;;;;;85.45;25.00;;;;;;;;;;4301145;33;20140;-78
2021/10/08 06:44:09;;;;;;;53.30;23.38;;;;;;;;;;4301085;33;20144;-76
2021/10/08 06:46:40;;;;;;;65.45;23.83;;;;;;;;;;4300975;33;20144;-77
2021/10/08 06:49:17;;;;;;;45.72;22.48;;;;;;;;;;4301435;33;20132;-77
2021/10/08 06:51:52;;;;;;;77.12;24.77;;;;;;;;;;4297842;33;21172;-76
2021/10/08 06:54:37;;;;;;;60.20;21.80;;;;;;;;;;4299895;33;20574;-78
2021/10/08 06:57:02;;;;;;;56.15;21.37;;;;;;;;;;4300697;33;20155;-76
2021/10/08 06:59:27;;;;;;;57.10;21.98;;;;;;;;;;4300754;33;20487;-75
2021/10/08 07:01:55;;;;;;;47.47;18.87;;;;;;;;;;4301526;33;20172;-75
2021/10/08 07:04:39;;;;;;;36.38;19.77;;;;;;;;;;4300491;33;20196;-76
2021/10/08 07:07:27;;;;;;;44.92;18.40;;;;;;;;;;4301829;33;20176;-75
2021/10/08 07:09:53;;;;;;;72.75;21.42;;;;;;;;;;4288594;33;20156;-75
2021/10/08 07:12:18;;;;;;;44.78;19.67;;;;;;;;;;4301811;33;20151;-77
2021/10/08 07:14:43;;;;;;;36.35;18.20;;;;;;;;;;4287777;33;20187;-76
2021/10/08 07:17:18;;;;;;;100.82;22.52;;;;;;;;;;4302490;33;20226;-77
2021/10/08 07:19:53;;;;;;;;;;;;;;;;;;;;;
2021/10/08 07:22:19;;;;;;;53.33;20.73;;;;;;;;;;4289737;33;20168;-76
2021/10/08 07:25:08;;;;;;;58.13;23.48;;;;;;;;;;4292977;33;20194;-77
2021/10/08 07:27:36;;;;;;;64.12;23.77;;;;;;;;;;4300822;33;20303;-77
2021/10/08 07:30:05;;;;;;;35.47;18.15;;;;;;;;;;4301276;33;20605;-76
2021/10/08 07:32:48;;;;;;;29.52;17.73;;;;;;;;;;4301017;33;20152;-75
2021/10/08 07:35:49;;;;;;;62.97;21.95;;;;;;;;;;4288119;33;20780;-76
2021/10/08 07:38:17;;;;;;;62.70;20.92;;;;;;;;;;4304094;33;20656;-76
2021/10/08 07:40:58;;;;;;;30.98;18.35;;;;;;;;;;4302352;33;20586;-77
2021/10/08 07:43:33;;;;;;;32.05;17.35;;;;;;;;;;4304342;33;20220;-77
2021/10/08 07:46:19;;;;;;;;;;;;;;;;;;;;;
2021/10/08 07:48:47;;;;;;;30.62;16.73;;;;;;;;;;4304074;33;20180;-77
2021/10/08 07:51:12;;;;;;;53.53;18.05;;;;;;;;;;4290412;33;20608;-75
2021/10/08 07:53:59;;;;;;;37.35;17.60;;;;;;;;;;4303491;33;20152;-74
2021/10/08 07:56:29;;;;;;;31.65;17.02;;;;;;;;;;4303242;33;20261;-76
2021/10/08 07:59:03;;;;;;;32.63;18.08;;;;;;;;;;4302939;33;20164;-78
2021/10/08 08:01:28;;;;;;;32.63;16.52;;;;;;;;;;4305336;33;20148;-75
2021/10/08 08:03:54;;;;;;;29.77;15.82;;;;;;;;;;4304555;33;20239;-77
2021/10/08 08:06:28;;;;;;;83.62;18.92;;;;;;;;;;4311435;33;20196;-77
2021/10/08 08:09:03;;;;;;;39.70;17.35;;;;;;;;;;4302708;33;20199;-76
2021/10/08 08:11:29;;;;;;;47.62;18.85;;;;;;;;;;4288145;33;20556;-76
2021/10/08 08:14:28;;;;;;;30.48;16.23;;;;;;;;;;4306406;33;20207;-76
2021/10/08 08:16:53;;;;;;;33.08;17.00;;;;;;;;;;4287871;33;20252;-78
2021/10/08 08:20:04;;;;;;;31.20;16.60;;;;;;;;;;4288758;33;20159;-77
2021/10/08 08:22:27;;;;;;;40.45;18.58;;;;;;;;;;4301975;33;20179;-76
2021/10/08 08:24:55;;;;;;;49.70;18.98;;;;;;;;;;4303182;33;20144;-77
2021/10/08 08:27:30;;;;;;;;;;;;;;;;;;;;;
2021/10/08 08:29:59;;;;;;;37.78;18.15;;;;;;;;;;4303358;33;20175;-76
2021/10/08 08:32:32;;;;;;;50.65;16.90;;;;;;;;;;4302895;33;20140;-77
2021/10/08 08:35:24;;;;;;;133.43;22.13;;;;;;;;;;4289794;33;20187;-77
2021/10/08 08:37:49;;;;;;;45.67;19.42;;;;;;;;;;4302974;33;20168;-75
2021/10/08 08:40:35;;;;;;;;;;;;;;;;;;;;;
2021/10/08 08:43:01;;;;;;;44.83;21.52;;;;;;;;;;4303246;33;20156;-76
2021/10/08 08:45:27;;;;;;;33.28;17.67;;;;;;;;;;4291282;33;20161;-76
2021/10/08 08:48:14;;;;;;;30.37;17.42;;;;;;;;;;4294599;33;20165;-75
2021/10/08 08:50:41;;;;;;;35.13;17.02;;;;;;;;;;4300222;33;20155;-77
2021/10/08 08:53:06;;;;;;;30.42;16.83;;;;;;;;;;4287373;33;20164;-76
2021/10/08 08:55:38;;;;;;;29.48;16.87;;;;;;;;;;4275286;33;20268;-76
2021/10/08 08:58:06;;;;;;;35.80;19.20;;;;;;;;;;4289163;33;20226;-76
2021/10/08 09:00:31;;;;;;;34.85;19.33;;;;;;;;;;4303052;33;20148;-76
2021/10/08 09:03:01;;;;;;;91.05;21.25;;;;;;;;;;4289782;33;20520;-76
2021/10/08 09:05:49;;;;;;;41.70;20.40;;;;;;;;;;4289330;33;20169;-76
2021/10/08 09:08:16;;;;;;;43.08;18.50;;;;;;;;;;4301446;33;20153;-77
2021/10/08 09:10:42;;;;;;;25.05;16.77;;;;;;;;;;4303020;33;20128;-77
2021/10/08 09:13:08;;;;;;;42.97;20.58;;;;;;;;;;4299913;33;20160;-76
2021/10/08 09:15:53;;;;;;;37.50;20.67;;;;;;;;;;4285944;33;20219;-77
2021/10/08 09:18:22;;;;;;;32.33;18.25;;;;;;;;;;4301378;33;20448;-77
2021/10/08 09:21:32;;;;;;;32.78;17.92;;;;;;;;;;4289092;33;20540;-77
2021/10/08 09:27:37;;;;;;;32.85;18.90;;;;;;;;;;4270740;33;20239;-76
2021/10/08 09:30:26;;;;;;;38.10;19.45;;;;;;;;;;4238118;33;20194;-77
2021/10/08 09:33:03;;;;;;;37.22;20.73;;;;;;;;;;4298619;33;20242;-77
2021/10/08 09:35:29;;;;;;;38.08;20.23;;;;;;;;;;4302756;33;20132;-77
2021/10/08 09:38:03;;;;;;;44.70;22.83;;;;;;;;;;4293467;33;20527;-77
2021/10/08 09:41:02;;;;;;;40.88;21.90;;;;;;;;;;4288732;33;20179;-78
2021/10/08 09:43:31;;;;;;;50.75;23.87;;;;;;;;;;4289070;33;20234;-76
2021/10/08 09:46:00;;;;;;;45.03;23.15;;;;;;;;;;4300541;33;20186;-76
2021/10/08 09:48:46;;;;;;;41.92;22.75;;;;;;;;;;4299358;33;20191;-77
2021/10/08 09:51:16;;;;;;;49.35;24.65;;;;;;;;;;4293521;33;20594;-75
2021/10/08 09:54:08;;;;;;;44.55;23.33;;;;;;;;;;4292966;33;20160;-77
2021/10/08 09:56:46;;;;;;;42.72;23.17;;;;;;;;;;4300858;33;20227;-76
2021/10/08 09:59:46;;;;;;;53.87;27.45;;;;;;;;;;4300757;33;20172;-77
2021/10/08 10:02:35;;;;;;;53.35;26.83;;;;;;;;;;4301087;33;20250;-76
2021/10/08 10:05:12;;;;;;;47.08;24.00;;;;;;;;;;4301258;33;20178;-76
2021/10/08 10:07:59;;;;;;;43.75;23.65;;;;;;;;;;4302165;33;20224;-76
2021/10/08 10:10:29;;;;;;;46.90;24.98;;;;;;;;;;4301804;33;20204;-76
2021/10/08 10:13:52;;;;;;;51.75;26.02;;;;;;;;;;4300719;33;20153;-77
2021/10/08 10:15:55;;;;;;;55.40;28.67;;;;;;;;;;4294055;33;20188;-76
2021/10/08 10:18:28;;;;;;;48.72;27.17;;;;;;;;;;4300840;33;20566;-76
2021/10/08 10:21:36;;;;;;;44.85;25.17;;;;;;;;;;4290262;33;20546;-76
2021/10/08 10:24:12;;;;;;;45.63;26.40;;;;;;;;;;4295860;33;20486;-76
2021/10/08 10:26:53;;;;;;;;;;;;;;;;;;;;;
2021/10/08 10:30:30;;;;;;;53.05;30.40;;;;;;;;;;4301965;33;20609;-76
2021/10/08 10:32:21;;;;;;;61.42;31.65;;;;;;;;;;4296933;33;20199;-78
2021/10/08 10:34:48;;;;;;;58.10;31.95;;;;;;;;;;4300400;33;20180;-76
2021/10/08 10:37:44;;;;;;;62.03;33.05;;;;;;;;;;4300334;33;20294;-77
2021/10/08 10:40:29;;;;;;;59.55;30.77;;;;;;;;;;4300593;33;20625;-77
2021/10/08 10:43:33;;;;;;;61.35;33.20;;;;;;;;;;4300276;33;20164;-76
2021/10/08 10:46:16;;;;;;;61.33;34.08;;;;;;;;;;4258256;33;20181;-78
2021/10/08 10:48:46;;;;;;;60.12;33.03;;;;;;;;;;4258956;33;20165;-78
2021/10/08 10:54:08;;;;;;;51.60;30.92;;;;;;;;;;4280621;33;20165;-75
2021/10/08 10:56:37;;;;;;;59.97;35.03;;;;;;;;;;4301632;33;20214;-75
2021/10/08 10:59:33;;;;;;;59.92;34.20;;;;;;;;;;4299913;33;20180;-77
2021/10/08 11:02:35;;;;;;;51.40;30.42;;;;;;;;;;4300287;33;20160;-77
2021/10/08 11:05:27;;;;;;;45.75;27.73;;;;;;;;;;4277350;33;20191;-75
2021/10/08 11:08:18;;;;;;;40.17;25.42;;;;;;;;;;4300319;33;20165;-76
2021/10/08 11:11:03;;;;;;;44.08;26.17;;;;;;;;;;4297599;33;20226;-76
2021/10/08 11:13:35;;;;;;;42.42;27.30;;;;;;;;;;4299540;33;20259;-77
2021/10/08 11:16:01;;;;;;;39.55;26.58;;;;;;;;;;4302870;33;20633;-77
2021/10/08 11:18:37;;;;;;;39.83;25.67;;;;;;;;;;4294329;33;20169;-77
2021/10/08 11:21:06;;;;;;;36.47;25.15;;;;;;;;;;4303268;33;20194;-76
2021/10/08 11:23:36;;;;;;;37.78;27.05;;;;;;;;;;4302803;33;20179;-77
2021/10/08 11:26:02;;;;;;;33.40;24.40;;;;;;;;;;4303737;33;20188;-77
2021/10/08 11:28:39;;;;;;;39.50;26.48;;;;;;;;;;4303341;33;20583;-77
2021/10/08 11:31:09;;;;;;;40.25;26.85;;;;;;;;;;4298667;33;20179;-76
2021/10/08 11:36:57;;;;;;;;;;;;;;;;;;;;;
2021/10/08 11:39:39;;;;;;;40.22;26.80;;;;;;;;;;4304350;33;20567;-77
2021/10/08 11:42:57;;;;;;;32.67;23.25;;;;;;;;;;4287497;33;20200;-77
2021/10/08 11:45:07;;;;;;;32.47;24.90;;;;;;;;;;4296609;33;20202;-77
2021/10/08 11:50:56;;;;;;;34.60;24.42;;;;;;;;;;4295652;33;20153;-76
2021/10/08 11:53:22;;;;;;;38.35;26.33;;;;;;;;;;4292238;33;20164;-76
2021/10/08 11:55:49;;;;;;;36.72;25.83;;;;;;;;;;4302249;33;20600;-76
2021/10/08 11:58:21;;;;;;;33.55;23.85;;;;;;;;;;4301943;33;20169;-76
2021/10/08 12:03:54;;;;;;;29.17;23.00;;;;;;;;;;4293988;33;20199;-76
2021/10/08 12:06:36;;;;;;;33.95;25.08;;;;;;;;;;4303685;33;20136;-77
2021/10/08 12:09:04;;;;;;;30.40;23.92;;;;;;;;;;4290709;33;20184;-77
2021/10/08 12:11:41;;;;;;;29.10;22.73;;;;;;;;;;4290240;33;20502;-78
2021/10/08 12:14:16;;;;;;;31.10;22.02;;;;;;;;;;4290366;33;20152;-76
2021/10/08 12:16:43;;;;;;;30.62;23.62;;;;;;;;;;4290477;33;20152;-76
2021/10/08 12:19:17;;;;;;;35.67;24.52;;;;;;;;;;4290422;33;20165;-77
2021/10/08 12:21:49;;;;;;;30.65;24.50;;;;;;;;;;4304166;33;20163;-76
2021/10/08 12:24:20;;;;;;;34.00;25.37;;;;;;;;;;4290602;33;20172;-77
2021/10/08 12:27:01;;;;;;;36.25;25.83;;;;;;;;;;4295881;33;20159;-77
2021/10/08 12:29:51;;;;;;;29.25;23.33;;;;;;;;;;4304506;33;20239;-77
2021/10/08 12:32:25;;;;;;;29.67;23.33;;;;;;;;;;4304291;33;20176;-76
2021/10/08 12:35:06;;;;;;;29.60;22.65;;;;;;;;;;4304503;33;20217;-77
2021/10/08 12:37:33;;;;;;;27.60;22.23;;;;;;;;;;4318825;33;20186;-77
2021/10/08 12:40:09;;;;;;;26.65;21.85;;;;;;;;;;4317593;33;20132;-75
2021/10/08 12:43:02;;;;;;;26.87;21.60;;;;;;;;;;4304169;33;20271;-76
2021/10/08 12:45:37;;;;;;;28.00;21.65;;;;;;;;;;4304067;33;20202;-77
2021/10/08 12:48:45;;;;;;;;;;;;;;;;;;;;;
2021/10/08 12:54:13;;;;;;;26.50;19.70;;;;;;;;;;4312059;33;20204;-77
2021/10/08 12:57:02;;;;;;;30.23;20.92;;;;;;;;;;4286734;33;20168;-76
2021/10/08 12:59:43;;;;;;;29.37;19.73;;;;;;;;;;4290108;33;20180;-74
2021/10/08 13:02:38;;;;;;;22.02;18.00;;;;;;;;;;4301778;33;20184;-77
2021/10/08 13:05:31;;;;;;;28.35;19.10;;;;;;;;;;4299872;33;20252;-76
2021/10/08 13:08:14;;;;;;;22.98;18.35;;;;;;;;;;4295186;33;20172;-76
2021/10/08 13:10:57;;;;;;;22.50;18.25;;;;;;;;;;4301147;33;20231;-77
2021/10/08 13:13:30;;;;;;;24.92;18.98;;;;;;;;;;4301979;33;20161;-77
2021/10/08 13:15:56;;;;;;;22.60;18.02;;;;;;;;;;4301373;33;20590;-77
2021/10/08 13:18:22;;;;;;;21.15;17.42;;;;;;;;;;4303020;33;20184;-77
2021/10/08 13:20:49;;;;;;;29.20;19.27;;;;;;;;;;4298797;33;20168;-77
2021/10/08 13:23:15;;;;;;;26.27;16.70;;;;;;;;;;4288409;33;20602;-78
2021/10/08 13:25:49;;;;;;;18.45;14.80;;;;;;;;;;4290166;33;20164;-77
2021/10/08 13:28:17;;;;;;;19.40;15.02;;;;;;;;;;4279615;33;20167;-77
2021/10/08 13:30:53;;;;;;;20.65;15.93;;;;;;;;;;4299428;33;20227;-77
2021/10/08 13:33:21;;;;;;;21.25;17.08;;;;;;;;;;4288773;33;20211;-75
2021/10/08 13:35:52;;;;;;;24.42;17.20;;;;;;;;;;4302747;33;20550;-76
2021/10/08 13:38:17;;;;;;;21.37;16.25;;;;;;;;;;4301387;33;20159;-76
2021/10/08 13:40:43;;;;;;;18.00;14.60;;;;;;;;;;4290000;33;20168;-76
2021/10/08 13:43:11;;;;;;;18.45;15.20;;;;;;;;;;4295805;33;20187;-76
2021/10/08 13:45:40;;;;;;;22.73;17.20;;;;;;;;;;4295616;33;20161;-77
2021/10/08 13:48:08;;;;;;;24.23;17.40;;;;;;;;;;4285005;33;20187;-77
2021/10/08 13:50:40;;;;;;;21.73;16.83;;;;;;;;;;4287384;33;20258;-77
2021/10/08 13:53:05;;;;;;;19.17;15.15;;;;;;;;;;4288901;33;20169;-76
2021/10/08 13:55:34;;;;;;;20.08;15.25;;;;;;;;;;4289206;33;20629;-76
2021/10/08 13:58:07;;;;;;;16.70;14.35;;;;;;;;;;4288219;33;20242;-78
2021/10/08 14:00:35;;;;;;;17.75;14.32;;;;;;;;;;4297672;33;20501;-77
2021/10/08 14:10:59;;;;;;;23.58;17.17;;;;;;;;;;4302085;33;20628;-77
2021/10/08 14:13:37;;;;;;;23.10;17.73;;;;;;;;;;4285168;33;20165;-78
2021/10/08 14:16:03;;;;;;;22.67;17.15;;;;;;;;;;4290549;33;20144;-76
2021/10/08 14:18:31;;;;;;;26.60;17.85;;;;;;;;;;4301853;33;20199;-76
2021/10/08 14:20:56;;;;;;;24.95;17.58;;;;;;;;;;4301591;33;20148;-76
2021/10/08 14:23:22;;;;;;;25.50;18.30;;;;;;;;;;4302367;33;20156;-77
2021/10/08 14:25:49;;;;;;;24.00;17.35;;;;;;;;;;4302066;33;20465;-77
2021/10/08 14:28:17;;;;;;;23.65;17.05;;;;;;;;;;4301864;33;20218;-78
2021/10/08 14:30:43;;;;;;;22.40;16.20;;;;;;;;;;4301047;33;20593;-77
2021/10/08 14:33:12;;;;;;;26.55;17.50;;;;;;;;;;4301654;33;20159;-77
2021/10/08 14:35:39;;;;;;;26.02;16.20;;;;;;;;;;4300334;33;20172;-77
2021/10/08 14:38:07;;;;;;;22.90;14.70;;;;;;;;;;4302057;33;20587;-77
2021/10/08 14:40:33;;;;;;;23.00;14.48;;;;;;;;;;4300713;33;20190;-77
2021/10/08 14:42:58;;;;;;;18.30;13.23;;;;;;;;;;4301684;33;20153;-77
2021/10/08 14:45:25;;;;;;;20.33;13.98;;;;;;;;;;4300455;33;20630;-77
2021/10/08 14:47:50;;;;;;;20.10;14.05;;;;;;;;;;4301062;33;20226;-77
2021/10/08 14:50:15;;;;;;;20.77;13.27;;;;;;;;;;4300161;33;20202;-76
2021/10/08 14:52:42;;;;;;;21.05;14.35;;;;;;;;;;4301390;33;20167;-75
2021/10/08 14:55:31;;;;;;;19.33;14.18;;;;;;;;;;4301276;33;20167;-77
2021/10/08 14:58:02;;;;;;;20.42;14.25;;;;;;;;;;4301904;33;20132;-76
2021/10/08 15:00:37;;;;;;;21.90;13.93;;;;;;;;;;4301604;33;20613;-77
2021/10/08 15:03:13;;;;;;;25.65;14.93;;;;;;;;;;4315696;33;20561;-77
2021/10/08 15:05:39;;;;;;;37.53;15.80;;;;;;;;;;4302582;33;20160;-78
2021/10/08 15:08:04;;;;;;;26.58;16.02;;;;;;;;;;4316053;33;20227;-76
2021/10/08 15:10:30;;;;;;;23.60;13.73;;;;;;;;;;4302567;33;20160;-77
2021/10/08 15:12:56;;;;;;;21.98;14.45;;;;;;;;;;4302648;33;20227;-75
2021/10/08 15:15:21;;;;;;;24.95;14.23;;;;;;;;;;4315658;33;20626;-77
2021/10/08 15:17:46;;;;;;;21.50;13.48;;;;;;;;;;4316078;33;20152;-76
2021/10/08 15:20:12;;;;;;;21.62;13.80;;;;;;;;;;4315674;33;20151;-76
2021/10/08 15:22:39;;;;;;;19.12;12.55;;;;;;;;;;4303034;33;20164;-76
2021/10/08 15:25:05;;;;;;;20.85;12.57;;;;;;;;;;4292842;33;20207;-77
2021/10/08 15:27:34;;;;;;;25.83;13.15;;;;;;;;;;4289821;33;20242;-77
2021/10/08 15:30:02;;;;;;;18.45;11.75;;;;;;;;;;4301232;33;20163;-76
2021/10/08 15:32:27;;;;;;;17.60;11.25;;;;;;;;;;4301448;33;20193;-76
2021/10/08 15:34:53;;;;;;;20.83;12.02;;;;;;;;;;4301260;33;20567;-76
2021/10/08 15:37:21;;;;;;;16.80;11.50;;;;;;;;;;4301245;33;20602;-76
2021/10/08 15:39:46;;;;;;;22.23;12.07;;;;;;;;;;4291223;33;20597;-76
2021/10/08 15:42:11;;;;;;;17.27;12.15;;;;;;;;;;4287706;33;20161;-76
2021/10/08 15:44:43;;;;;;;19.40;13.00;;;;;;;;;;4301410;33;20144;-76
2021/10/08 15:47:08;;;;;;;25.58;14.48;;;;;;;;;;4301032;33;20167;-77
2021/10/08 15:49:43;;;;;;;22.95;14.90;;;;;;;;;;4288008;33;20199;-77
2021/10/08 15:52:11;;;;;;;24.25;14.57;;;;;;;;;;4287828;33;20231;-77
2021/10/08 15:54:37;;;;;;;24.60;15.10;;;;;;;;;;4288011;33;20164;-78
2021/10/08 15:57:04;;;;;;;28.67;16.35;;;;;;;;;;4287653;33;20538;-77
2021/10/08 15:59:29;;;;;;;20.80;14.50;;;;;;;;;;4300830;33;20140;-78
2021/10/08 16:01:54;;;;;;;29.23;15.82;;;;;;;;;;4297034;33;20201;-76
2021/10/08 16:04:19;;;;;;;25.45;15.57;;;;;;;;;;4293208;33;20541;-78
2021/10/08 16:06:45;;;;;;;24.52;16.45;;;;;;;;;;4288122;33;20606;-76
2021/10/08 16:09:12;;;;;;;32.28;18.08;;;;;;;;;;4287685;33;20218;-76
2021/10/08 16:11:38;;;;;;;34.78;19.12;;;;;;;;;;4287795;33;20191;-76
2021/10/08 16:14:04;;;;;;;23.27;14.93;;;;;;;;;;4287238;33;20200;-77
2021/10/08 16:16:30;;;;;;;24.20;14.70;;;;;;;;;;4287869;33;20160;-77
2021/10/08 16:19:02;;;;;;;23.65;14.63;;;;;;;;;;4287707;33;20160;-77
2021/10/08 16:21:27;;;;;;;30.02;15.32;;;;;;;;;;4287748;33;20165;-76
2021/10/08 16:23:54;;;;;;;23.52;13.77;;;;;;;;;;4289155;33;20141;-76
2021/10/08 16:26:20;;;;;;;26.17;15.25;;;;;;;;;;4287411;33;20512;-77
2021/10/08 16:28:47;;;;;;;24.48;14.05;;;;;;;;;;4287484;33;20160;-77
2021/10/08 16:31:18;;;;;;;28.48;15.02;;;;;;;;;;4287636;33;20181;-76
2021/10/08 16:33:43;;;;;;;19.52;13.20;;;;;;;;;;4292643;33;20161;-77